createdAt,value
2023-04-09T00:00:05.451Z,960.1872
2023-04-09T00:01:08.533Z,960.1833
2023-04-09T00:02:11.697Z,960.1705
2023-04-09T00:03:15.106Z,960.1556
2023-04-09T00:04:18.346Z,960.1439
2023-04-09T00:05:21.384Z,960.1211
2023-04-09T00:06:24.468Z,960.1105
2023-04-09T00:07:27.553Z,960.1089
2023-04-09T00:08:30.664Z,960.1128
2023-04-09T00:09:33.738Z,960.1211
2023-04-09T00:10:36.804Z,960.1295
2023-04-09T00:11:39.869Z,960.1328
2023-04-09T00:12:42.981Z,960.1345
2023-04-09T00:13:46.108Z,960.1289
2023-04-09T00:14:49.184Z,960.1228
2023-04-09T00:15:52.299Z,960.1200
2023-04-09T00:16:55.329Z,960.1178
2023-04-09T00:17:58.627Z,960.1139
2023-04-09T00:19:01.717Z,960.1105
2023-04-09T00:20:04.814Z,960.1078
2023-04-09T00:21:07.898Z,960.0994
2023-04-09T00:22:10.997Z,960.1000
2023-04-09T00:23:14.047Z,960.0922
2023-04-09T00:24:17.142Z,960.0895
2023-04-09T00:25:20.235Z,960.0861
2023-04-09T00:26:23.345Z,960.0706
2023-04-09T00:27:26.400Z,960.0711
2023-04-09T00:28:29.478Z,960.0656
2023-04-09T00:29:32.560Z,960.0594
2023-04-09T00:30:35.639Z,960.0500
2023-04-09T00:31:38.753Z,960.0433
2023-04-09T00:32:41.831Z,960.0367
2023-04-09T00:33:45.021Z,960.0328
2023-04-09T00:34:48.120Z,960.0211
2023-04-09T00:35:51.239Z,960.0117
2023-04-09T00:36:54.298Z,960.0000
2023-04-09T00:37:57.349Z,959.9833
2023-04-09T00:39:00.449Z,959.9716
2023-04-09T00:40:03.523Z,959.9639
2023-04-09T00:41:06.619Z,959.9495
2023-04-09T00:42:09.694Z,959.9478
2023-04-09T00:43:12.823Z,959.9445
2023-04-09T00:44:15.896Z,959.9484
2023-04-09T00:45:18.988Z,959.9556
2023-04-09T00:46:22.319Z,959.9539
2023-04-09T00:47:25.369Z,959.9550
2023-04-09T00:48:28.716Z,959.9539
2023-04-09T00:49:31.789Z,959.9628
2023-04-09T00:50:34.885Z,959.9589
2023-04-09T00:51:37.951Z,959.9556
2023-04-09T00:52:41.049Z,959.9484
2023-04-09T00:53:44.105Z,959.9411
2023-04-09T00:54:47.205Z,959.9395
2023-04-09T00:55:50.300Z,959.9194
2023-04-09T00:56:53.395Z,959.9144
2023-04-09T00:57:56.425Z,959.9011
2023-04-09T00:58:59.535Z,959.8961
2023-04-09T01:00:02.613Z,959.8989
2023-04-09T01:01:05.744Z,959.8983
2023-04-09T01:02:08.846Z,959.8906
2023-04-09T01:03:12.036Z,959.8950
2023-04-09T01:04:15.082Z,959.8861
2023-04-09T01:05:18.195Z,959.8850
2023-04-09T01:06:21.507Z,959.8795
2023-04-09T01:07:24.600Z,959.8766
2023-04-09T01:08:28.012Z,959.8650
2023-04-09T01:09:31.111Z,959.8622
2023-04-09T01:10:34.179Z,959.8511
2023-04-09T01:11:37.484Z,959.8500
2023-04-09T01:12:40.545Z,959.8522
2023-04-09T01:13:43.933Z,959.8511
2023-04-09T01:14:47.034Z,959.8611
2023-04-09T01:15:50.125Z,959.8633
2023-04-09T01:16:53.655Z,959.8650
2023-04-09T01:17:56.779Z,959.8633
2023-04-09T01:18:59.956Z,959.8611
2023-04-09T01:20:03.025Z,959.8600
2023-04-09T01:21:06.164Z,959.8511
2023-04-09T01:22:09.226Z,959.8483
2023-04-09T01:23:12.285Z,959.8428
2023-04-09T01:24:15.409Z,959.8417
2023-04-09T01:25:18.451Z,959.8511
2023-04-09T01:26:21.572Z,959.8516
2023-04-09T01:27:24.658Z,959.8517
2023-04-09T01:28:27.765Z,959.8439
2023-04-09T01:29:30.824Z,959.8239
2023-04-09T01:30:33.920Z,959.8072
2023-04-09T01:31:37.015Z,959.7983
2023-04-09T01:32:40.164Z,959.7844
2023-04-09T01:33:43.297Z,959.7789
2023-04-09T01:34:46.396Z,959.7772
2023-04-09T01:35:49.557Z,959.7795
2023-04-09T01:36:52.601Z,959.7734
2023-04-09T01:37:55.676Z,959.7817
2023-04-09T01:38:58.769Z,959.7856
2023-04-09T01:40:01.832Z,959.7839
2023-04-09T01:41:04.911Z,959.7894
2023-04-09T01:42:07.997Z,959.8105
2023-04-09T01:43:11.076Z,959.8178
2023-04-09T01:44:14.363Z,959.8261
2023-04-09T01:45:17.437Z,959.8361
2023-04-09T01:46:20.870Z,959.8322
2023-04-09T01:47:24.007Z,959.8367
2023-04-09T01:48:27.078Z,959.8367
2023-04-09T01:49:30.166Z,959.8267
2023-04-09T01:50:33.256Z,959.8145
2023-04-09T01:51:36.349Z,959.8172
2023-04-09T01:52:39.445Z,959.8272
2023-04-09T01:53:42.530Z,959.8322
2023-04-09T01:54:45.584Z,959.8450
2023-04-09T01:55:48.694Z,959.8533
2023-04-09T01:56:51.750Z,959.8544
2023-04-09T01:57:54.865Z,959.8566
2023-04-09T01:58:57.944Z,959.8561
2023-04-09T02:00:01.001Z,959.8600
2023-04-09T02:01:04.098Z,959.8689
2023-04-09T02:02:07.172Z,959.8639
2023-04-09T02:03:10.309Z,959.8650
2023-04-09T02:04:13.358Z,959.8661
2023-04-09T02:05:23.977Z,959.8494
2023-04-09T02:06:27.103Z,959.8489
2023-04-09T02:07:30.172Z,959.8483
2023-04-09T02:08:33.420Z,959.8505
2023-04-09T02:09:36.533Z,959.8555
2023-04-09T02:10:39.705Z,959.8638
2023-04-09T02:11:42.792Z,959.8583
2023-04-09T02:12:45.937Z,959.8666
2023-04-09T02:13:49.073Z,959.8683
2023-04-09T02:14:52.135Z,959.8778
2023-04-09T02:15:55.231Z,959.8834
2023-04-09T02:16:58.297Z,959.8867
2023-04-09T02:18:01.416Z,959.8795
2023-04-09T02:19:04.503Z,959.8761
2023-04-09T02:20:07.600Z,959.8789
2023-04-09T02:21:10.666Z,959.8766
2023-04-09T02:22:13.798Z,959.8711
2023-04-09T02:23:16.881Z,959.8528
2023-04-09T02:24:20.130Z,959.8444
2023-04-09T02:25:23.201Z,959.8334
2023-04-09T02:26:26.539Z,959.8256
2023-04-09T02:27:29.626Z,959.8256
2023-04-09T02:28:32.732Z,959.8278
2023-04-09T02:29:35.808Z,959.8256
2023-04-09T02:30:38.915Z,959.8066
2023-04-09T02:31:42.014Z,959.8039
2023-04-09T02:32:45.115Z,959.7978
2023-04-09T02:33:48.175Z,959.7900
2023-04-09T02:34:51.396Z,959.7833
2023-04-09T02:35:54.459Z,959.7828
2023-04-09T02:36:57.657Z,959.7867
2023-04-09T02:38:00.736Z,959.7878
2023-04-09T02:39:03.871Z,959.7856
2023-04-09T02:40:06.953Z,959.7955
2023-04-09T02:41:10.068Z,959.7894
2023-04-09T02:42:13.186Z,959.7833
2023-04-09T02:43:16.255Z,959.7817
2023-04-09T02:44:19.574Z,959.7856
2023-04-09T02:45:22.677Z,959.7889
2023-04-09T02:46:26.048Z,959.7878
2023-04-09T02:47:29.112Z,959.7850
2023-04-09T02:48:32.212Z,959.7867
2023-04-09T02:49:35.290Z,959.7916
2023-04-09T02:50:38.448Z,959.7955
2023-04-09T02:51:41.508Z,959.8022
2023-04-09T02:52:44.628Z,959.7961
2023-04-09T02:53:47.694Z,959.7911
2023-04-09T02:54:50.780Z,959.7928
2023-04-09T02:55:53.888Z,959.7778
2023-04-09T02:56:56.992Z,959.7811
2023-04-09T02:58:00.079Z,959.7722
2023-04-09T02:59:03.167Z,959.7728
2023-04-09T03:00:06.251Z,959.7684
2023-04-09T03:01:09.366Z,959.7606
2023-04-09T03:02:12.474Z,959.7539
2023-04-09T03:03:15.705Z,959.7505
2023-04-09T03:04:18.907Z,959.7372
2023-04-09T03:05:22.038Z,959.7228
2023-04-09T03:06:25.186Z,959.7167
2023-04-09T03:07:28.221Z,959.7156
2023-04-09T03:08:31.300Z,959.6984
2023-04-09T03:09:34.411Z,959.7000
2023-04-09T03:10:37.482Z,959.7106
2023-04-09T03:11:40.857Z,959.7078
2023-04-09T03:12:43.915Z,959.7150
2023-04-09T03:13:46.997Z,959.7255
2023-04-09T03:14:50.082Z,959.7228
2023-04-09T03:15:53.196Z,959.7167
2023-04-09T03:16:56.291Z,959.6922
2023-04-09T03:17:59.507Z,959.6778
2023-04-09T03:19:02.595Z,959.6605
2023-04-09T03:20:05.690Z,959.6456
2023-04-09T03:21:08.764Z,959.6422
2023-04-09T03:22:11.897Z,959.6461
2023-04-09T03:23:15.019Z,959.6428
2023-04-09T03:24:18.112Z,959.6500
2023-04-09T03:25:21.215Z,959.6550
2023-04-09T03:26:24.298Z,959.6644
2023-04-09T03:27:27.438Z,959.6617
2023-04-09T03:28:30.528Z,959.6567
2023-04-09T03:29:33.621Z,959.6622
2023-04-09T03:30:36.710Z,959.6639
2023-04-09T03:31:39.877Z,959.6666
2023-04-09T03:32:43.035Z,959.6722
2023-04-09T03:33:46.146Z,959.6794
2023-04-09T03:34:49.220Z,959.6733
2023-04-09T03:35:52.380Z,959.6733
2023-04-09T03:36:55.451Z,959.6616
2023-04-09T03:37:58.572Z,959.6622
2023-04-09T03:39:01.814Z,959.6605
2023-04-09T03:40:04.949Z,959.6467
2023-04-09T03:41:08.032Z,959.6400
2023-04-09T03:42:11.105Z,959.6372
2023-04-09T03:43:14.201Z,959.6356
2023-04-09T03:44:17.570Z,959.6278
2023-04-09T03:45:20.642Z,959.6306
2023-04-09T03:46:23.935Z,959.6378
2023-04-09T03:47:27.084Z,959.6417
2023-04-09T03:48:30.166Z,959.6556
2023-04-09T03:49:33.248Z,959.6578
2023-04-09T03:50:36.334Z,959.6589
2023-04-09T03:51:39.671Z,959.6533
2023-04-09T03:52:42.772Z,959.6539
2023-04-09T03:53:45.868Z,959.6506
2023-04-09T03:54:49.116Z,959.6489
2023-04-09T03:55:52.176Z,959.6533
2023-04-09T03:56:55.271Z,959.6605
2023-04-09T03:57:58.362Z,959.6639
2023-04-09T03:59:01.658Z,959.6639
2023-04-09T04:00:04.745Z,959.6766
2023-04-09T04:01:07.837Z,959.6833
2023-04-09T04:02:11.211Z,959.6816
2023-04-09T04:03:14.552Z,959.6816
2023-04-09T04:04:18.005Z,959.6822
2023-04-09T04:05:18.502Z,959.6871
2023-04-09T04:06:21.592Z,959.6755
2023-04-09T04:07:24.689Z,959.6661
2023-04-09T04:08:27.785Z,959.6678
2023-04-09T04:09:30.941Z,959.6761
2023-04-09T04:10:34.013Z,959.6839
2023-04-09T04:11:37.300Z,959.6850
2023-04-09T04:12:40.375Z,959.6816
2023-04-09T04:13:43.487Z,959.6895
2023-04-09T04:14:46.606Z,959.6872
2023-04-09T04:15:49.681Z,959.6911
2023-04-09T04:16:52.843Z,959.6911
2023-04-09T04:17:55.931Z,959.6855
2023-04-09T04:18:58.995Z,959.6839
2023-04-09T04:20:02.122Z,959.6778
2023-04-09T04:21:05.215Z,959.6811
2023-04-09T04:22:08.306Z,959.6922
2023-04-09T04:23:11.378Z,959.6950
2023-04-09T04:24:14.493Z,959.7161
2023-04-09T04:25:17.592Z,959.7300
2023-04-09T04:26:20.703Z,959.7344
2023-04-09T04:27:23.796Z,959.7394
2023-04-09T04:28:26.890Z,959.7383
2023-04-09T04:29:28.153Z,959.7518
2023-04-09T04:30:31.308Z,959.7550
2023-04-09T04:31:34.396Z,959.7672
2023-04-09T04:32:37.717Z,959.7933
2023-04-09T04:33:40.810Z,959.8005
2023-04-09T04:34:43.883Z,959.8105
2023-04-09T04:35:47.046Z,959.8317
2023-04-09T04:36:50.112Z,959.8544
2023-04-09T04:37:53.207Z,959.8789
2023-04-09T04:38:56.310Z,959.9022
2023-04-09T04:39:59.403Z,959.8917
2023-04-09T04:41:02.511Z,959.8722
2023-04-09T04:42:05.766Z,959.8705
2023-04-09T04:43:08.882Z,959.8834
2023-04-09T04:44:11.984Z,959.8778
2023-04-09T04:45:15.062Z,959.8728
2023-04-09T04:46:18.236Z,959.8800
2023-04-09T04:47:21.376Z,959.8784
2023-04-09T04:48:24.452Z,959.8700
2023-04-09T04:49:27.767Z,959.8600
2023-04-09T04:50:30.886Z,959.8628
2023-04-09T04:51:33.987Z,959.8655
2023-04-09T04:52:37.146Z,959.8650
2023-04-09T04:53:40.233Z,959.8633
2023-04-09T04:54:43.537Z,959.8778
2023-04-09T04:55:46.618Z,959.8795
2023-04-09T04:56:49.756Z,959.8811
2023-04-09T04:57:52.839Z,959.8872
2023-04-09T04:58:55.928Z,959.8850
2023-04-09T04:59:59.032Z,959.8856
2023-04-09T05:01:02.201Z,959.8972
2023-04-09T05:02:05.332Z,959.8911
2023-04-09T05:03:08.611Z,959.8950
2023-04-09T05:04:11.712Z,959.8989
2023-04-09T05:05:14.907Z,959.9033
2023-04-09T05:06:18.002Z,959.9039
2023-04-09T05:07:21.145Z,959.9233
2023-04-09T05:08:24.250Z,959.9300
2023-04-09T05:09:27.337Z,959.9406
2023-04-09T05:10:30.445Z,959.9495
2023-04-09T05:11:33.535Z,959.9617
2023-04-09T05:12:36.661Z,959.9672
2023-04-09T05:13:39.729Z,959.9783
2023-04-09T05:14:42.862Z,959.9844
2023-04-09T05:15:45.965Z,959.9783
2023-04-09T05:16:49.113Z,959.9922
2023-04-09T05:17:52.185Z,959.9883
2023-04-09T05:18:55.480Z,959.9922
2023-04-09T05:19:58.568Z,959.9833
2023-04-09T05:21:01.696Z,959.9828
2023-04-09T05:22:04.837Z,959.9700
2023-04-09T05:23:07.918Z,959.9717
2023-04-09T05:24:11.020Z,959.9805
2023-04-09T05:25:14.134Z,959.9866
2023-04-09T05:26:17.202Z,959.9800
2023-04-09T05:27:20.378Z,959.9811
2023-04-09T05:28:23.507Z,959.9850
2023-04-09T05:29:23.935Z,959.9876
2023-04-09T05:30:27.062Z,959.9883
2023-04-09T05:31:30.184Z,959.9833
2023-04-09T05:32:33.633Z,959.9728
2023-04-09T05:33:36.736Z,959.9656
2023-04-09T05:34:40.122Z,959.9656
2023-04-09T05:35:43.274Z,959.9628
2023-04-09T05:36:46.388Z,959.9484
2023-04-09T05:37:49.532Z,959.9411
2023-04-09T05:38:52.982Z,959.9222
2023-04-09T05:39:52.727Z,959.9100
2023-04-09T05:40:55.883Z,959.8950
2023-04-09T05:41:59.024Z,959.8900
2023-04-09T05:43:02.217Z,959.8739
2023-04-09T05:44:05.401Z,959.8644
2023-04-09T05:45:08.539Z,959.8622
2023-04-09T05:46:11.696Z,959.8594
2023-04-09T05:47:14.807Z,959.8589
2023-04-09T05:48:17.980Z,959.8661
2023-04-09T05:49:21.144Z,959.8716
2023-04-09T05:50:24.262Z,959.8755
2023-04-09T05:51:27.385Z,959.8795
2023-04-09T05:52:30.813Z,959.8800
2023-04-09T05:53:33.958Z,959.8772
2023-04-09T05:54:37.359Z,959.8839
2023-04-09T05:55:40.471Z,959.8856
2023-04-09T05:56:43.605Z,959.8766
2023-04-09T05:57:46.993Z,959.8722
2023-04-09T05:58:50.119Z,959.8795
2023-04-09T05:59:53.241Z,959.8839
2023-04-09T06:00:56.407Z,959.8900
2023-04-09T06:01:59.548Z,959.9011
2023-04-09T06:03:01.012Z,959.9035
2023-04-09T06:04:04.726Z,959.9006
2023-04-09T06:05:04.767Z,959.8953
2023-04-09T06:06:07.890Z,959.9033
2023-04-09T06:07:11.056Z,959.8967
2023-04-09T06:08:14.162Z,959.9028
2023-04-09T06:09:17.317Z,959.9155
2023-04-09T06:10:20.457Z,959.9105
2023-04-09T06:11:23.609Z,959.9039
2023-04-09T06:12:26.981Z,959.9128
2023-04-09T06:13:30.160Z,959.9189
2023-04-09T06:14:33.314Z,959.9384
2023-04-09T06:15:36.489Z,959.9445
2023-04-09T06:16:39.633Z,959.9584
2023-04-09T06:17:42.840Z,959.9589
2023-04-09T06:18:45.939Z,959.9550
2023-04-09T06:19:49.374Z,959.9611
2023-04-09T06:20:52.548Z,959.9705
2023-04-09T06:21:55.691Z,959.9711
2023-04-09T06:22:55.685Z,959.9583
2023-04-09T06:23:58.827Z,959.9550
2023-04-09T06:25:01.961Z,959.9561
2023-04-09T06:26:05.083Z,959.9633
2023-04-09T06:27:08.223Z,959.9595
2023-04-09T06:28:11.635Z,959.9550
2023-04-09T06:29:14.748Z,959.9467
2023-04-09T06:30:18.118Z,959.9350
2023-04-09T06:31:21.256Z,959.9434
2023-04-09T06:32:24.383Z,959.9411
2023-04-09T06:33:27.534Z,959.9472
2023-04-09T06:34:30.684Z,959.9400
2023-04-09T06:35:34.093Z,959.9389
2023-04-09T06:36:37.180Z,959.9461
2023-04-09T06:37:40.453Z,959.9661
2023-04-09T06:38:43.630Z,959.9589
2023-04-09T06:39:58.176Z,959.9606
2023-04-09T06:40:49.042Z,959.9669
2023-04-09T06:41:52.161Z,959.9794
2023-04-09T06:42:55.514Z,959.9894
2023-04-09T06:43:58.622Z,959.9950
2023-04-09T06:45:01.772Z,959.9911
2023-04-09T06:46:04.937Z,960.0000
2023-04-09T06:47:08.064Z,960.0005
2023-04-09T06:48:11.257Z,960.0095
2023-04-09T06:49:14.386Z,960.0184
2023-04-09T06:50:17.536Z,960.0356
2023-04-09T06:51:20.652Z,960.0339
2023-04-09T06:52:23.829Z,960.0394
2023-04-09T06:53:27.010Z,960.0611
2023-04-09T06:54:30.143Z,960.0628
2023-04-09T06:55:33.304Z,960.0778
2023-04-09T06:56:36.450Z,960.1116
2023-04-09T06:57:39.674Z,960.1066
2023-04-09T06:58:42.825Z,960.1089
2023-04-09T06:59:45.931Z,960.1178
2023-04-09T07:00:49.072Z,960.1255
2023-04-09T07:01:54.570Z,960.1205
2023-04-09T07:02:54.522Z,960.1188
2023-04-09T07:03:58.034Z,960.1072
2023-04-09T07:04:57.856Z,960.0994
2023-04-09T07:06:00.958Z,960.0861
2023-04-09T07:07:04.084Z,960.0933
2023-04-09T07:08:07.218Z,960.1028
2023-04-09T07:09:10.463Z,960.1055
2023-04-09T07:10:13.587Z,960.0928
2023-04-09T07:11:16.714Z,960.0856
2023-04-09T07:12:19.843Z,960.0906
2023-04-09T07:13:22.995Z,960.0928
2023-04-09T07:14:26.166Z,960.1100
2023-04-09T07:15:29.305Z,960.1166
2023-04-09T07:16:32.602Z,960.1089
2023-04-09T07:17:35.772Z,960.1072
2023-04-09T07:18:38.903Z,960.1083
2023-04-09T07:19:42.049Z,960.1089
2023-04-09T07:20:45.208Z,960.0972
2023-04-09T07:21:48.354Z,960.0900
2023-04-09T07:22:51.469Z,960.0439
2023-04-09T07:23:54.876Z,960.0289
2023-04-09T07:24:54.668Z,960.0412
2023-04-09T07:25:57.808Z,960.0311
2023-04-09T07:27:00.932Z,960.0261
2023-04-09T07:28:04.279Z,960.0239
2023-04-09T07:29:07.435Z,960.0233
2023-04-09T07:30:10.587Z,960.0344
2023-04-09T07:31:13.705Z,960.0311
2023-04-09T07:32:16.877Z,960.0372
2023-04-09T07:33:20.003Z,960.0544
2023-04-09T07:34:23.185Z,960.0772
2023-04-09T07:35:26.321Z,960.0933
2023-04-09T07:36:29.573Z,960.1116
2023-04-09T07:37:32.767Z,960.1061
2023-04-09T07:38:36.291Z,960.0917
2023-04-09T07:39:39.404Z,960.0878
2023-04-09T07:40:42.584Z,960.0978
2023-04-09T07:41:45.718Z,960.1066
2023-04-09T07:42:48.886Z,960.1072
2023-04-09T07:43:51.990Z,960.1200
2023-04-09T07:44:55.117Z,960.1400
2023-04-09T07:45:58.596Z,960.1567
2023-04-09T07:47:01.846Z,960.1644
2023-04-09T07:48:05.229Z,960.1711
2023-04-09T07:49:08.392Z,960.1666
2023-04-09T07:50:11.588Z,960.1672
2023-04-09T07:51:14.691Z,960.1517
2023-04-09T07:52:17.837Z,960.1356
2023-04-09T07:53:21.213Z,960.1350
2023-04-09T07:54:24.392Z,960.1445
2023-04-09T07:55:27.506Z,960.1417
2023-04-09T07:56:30.662Z,960.1528
2023-04-09T07:57:33.821Z,960.1406
2023-04-09T07:58:36.970Z,960.1478
2023-04-09T07:59:40.111Z,960.1578
2023-04-09T08:00:43.237Z,960.1556
2023-04-09T08:01:46.511Z,960.1428
2023-04-09T08:02:46.616Z,960.1441
2023-04-09T08:03:50.061Z,960.1389
2023-04-09T08:04:49.953Z,960.1547
2023-04-09T08:05:51.221Z,960.1541
2023-04-09T08:06:54.333Z,960.1334
2023-04-09T08:07:57.502Z,960.1311
2023-04-09T08:09:00.635Z,960.1205
2023-04-09T08:10:03.810Z,960.1334
2023-04-09T08:11:06.957Z,960.1361
2023-04-09T08:12:10.101Z,960.1439
2023-04-09T08:13:13.273Z,960.1494
2023-04-09T08:14:16.450Z,960.1850
2023-04-09T08:15:19.550Z,960.2006
2023-04-09T08:16:22.715Z,960.1934
2023-04-09T08:17:25.885Z,960.2050
2023-04-09T08:18:28.996Z,960.2039
2023-04-09T08:19:32.178Z,960.1722
2023-04-09T08:20:35.307Z,960.1805
2023-04-09T08:21:38.467Z,960.1895
2023-04-09T08:22:41.568Z,960.1805
2023-04-09T08:23:44.729Z,960.1794
2023-04-09T08:24:47.852Z,960.1900
2023-04-09T08:25:50.990Z,960.1878
2023-04-09T08:26:54.179Z,960.1900
2023-04-09T08:27:57.341Z,960.1850
2023-04-09T08:29:00.451Z,960.1705
2023-04-09T08:30:03.674Z,960.1995
2023-04-09T08:31:06.834Z,960.2267
2023-04-09T08:32:10.008Z,960.2378
2023-04-09T08:33:13.154Z,960.2405
2023-04-09T08:34:16.303Z,960.2461
2023-04-09T08:35:19.457Z,960.2689
2023-04-09T08:36:22.655Z,960.2756
2023-04-09T08:37:25.766Z,960.2722
2023-04-09T08:38:28.989Z,960.2783
2023-04-09T08:39:32.095Z,960.2767
2023-04-09T08:40:35.225Z,960.2683
2023-04-09T08:41:38.339Z,960.3011
2023-04-09T08:42:41.525Z,960.2917
2023-04-09T08:43:56.911Z,960.2850
2023-04-09T08:44:46.709Z,960.3163
2023-04-09T08:45:49.839Z,960.3228
2023-04-09T08:46:52.940Z,960.3100
2023-04-09T08:47:56.326Z,960.3028
2023-04-09T08:48:59.413Z,960.3022
2023-04-09T08:50:02.542Z,960.3011
2023-04-09T08:51:05.668Z,960.3178
2023-04-09T08:52:08.825Z,960.3272
2023-04-09T08:53:11.978Z,960.3356
2023-04-09T08:54:15.109Z,960.3100
2023-04-09T08:55:18.227Z,960.3011
2023-04-09T08:56:21.378Z,960.3311
2023-04-09T08:57:24.492Z,960.3672
2023-04-09T08:58:27.701Z,960.3689
2023-04-09T08:59:30.873Z,960.3861
2023-04-09T09:00:34.132Z,960.3911
2023-04-09T09:01:37.398Z,960.3789
2023-04-09T09:02:40.605Z,960.3806
2023-04-09T09:03:43.793Z,960.4067
2023-04-09T09:04:46.948Z,960.3933
2023-04-09T09:05:50.047Z,960.3950
2023-04-09T09:06:54.783Z,960.3939
2023-04-09T09:07:55.776Z,960.3941
2023-04-09T09:08:58.922Z,960.4111
2023-04-09T09:10:02.056Z,960.4561
2023-04-09T09:11:05.202Z,960.4705
2023-04-09T09:12:08.327Z,960.4528
2023-04-09T09:13:11.448Z,960.4489
2023-04-09T09:14:14.604Z,960.4250
2023-04-09T09:15:17.737Z,960.4316
2023-04-09T09:16:20.967Z,960.4583
2023-04-09T09:17:24.122Z,960.4611
2023-04-09T09:18:27.241Z,960.4406
2023-04-09T09:19:30.411Z,960.4205
2023-04-09T09:20:33.566Z,960.4178
2023-04-09T09:21:36.730Z,960.4333
2023-04-09T09:22:39.834Z,960.4200
2023-04-09T09:23:42.964Z,960.4078
2023-04-09T09:24:47.622Z,960.3989
2023-04-09T09:25:48.039Z,960.4053
2023-04-09T09:26:51.178Z,960.4228
2023-04-09T09:27:54.359Z,960.4333
2023-04-09T09:28:57.488Z,960.4322
2023-04-09T09:30:00.649Z,960.4372
2023-04-09T09:31:03.794Z,960.4294
2023-04-09T09:32:06.930Z,960.4094
2023-04-09T09:33:10.098Z,960.3994
2023-04-09T09:34:13.226Z,960.4144
2023-04-09T09:35:16.371Z,960.4161
2023-04-09T09:36:19.530Z,960.4133
2023-04-09T09:37:22.684Z,960.4183
2023-04-09T09:38:26.052Z,960.4056
2023-04-09T09:39:29.175Z,960.3878
2023-04-09T09:40:32.490Z,960.3900
2023-04-09T09:41:35.608Z,960.3956
2023-04-09T09:42:38.772Z,960.4044
2023-04-09T09:43:42.172Z,960.3800
2023-04-09T09:44:45.337Z,960.3494
2023-04-09T09:45:48.495Z,960.3383
2023-04-09T09:46:51.632Z,960.3150
2023-04-09T09:47:54.867Z,960.2894
2023-04-09T09:48:58.016Z,960.3245
2023-04-09T09:50:01.178Z,960.3328
2023-04-09T09:51:04.509Z,960.3250
2023-04-09T09:52:07.635Z,960.2794
2023-04-09T09:53:10.951Z,960.2783
2023-04-09T09:54:14.042Z,960.2750
2023-04-09T09:55:17.175Z,960.2833
2023-04-09T09:56:20.328Z,960.2689
2023-04-09T09:57:23.471Z,960.2817
2023-04-09T09:58:26.626Z,960.2811
2023-04-09T09:59:29.752Z,960.2944
2023-04-09T10:00:33.168Z,960.3061
2023-04-09T10:01:36.348Z,960.2978
2023-04-09T10:02:39.615Z,960.3105
2023-04-09T10:03:42.733Z,960.2972
2023-04-09T10:04:45.968Z,960.2795
2023-04-09T10:05:49.169Z,960.2878
2023-04-09T10:06:53.425Z,960.2545
2023-04-09T10:07:53.283Z,960.2618
2023-04-09T10:08:56.664Z,960.2595
2023-04-09T10:09:59.801Z,960.2556
2023-04-09T10:11:02.910Z,960.2511
2023-04-09T10:12:06.050Z,960.2206
2023-04-09T10:13:09.190Z,960.2394
2023-04-09T10:14:12.313Z,960.2405
2023-04-09T10:15:15.488Z,960.2228
2023-04-09T10:16:18.605Z,960.2061
2023-04-09T10:17:21.818Z,960.1917
2023-04-09T10:18:24.979Z,960.1922
2023-04-09T10:19:28.113Z,960.1816
2023-04-09T10:20:31.232Z,960.1928
2023-04-09T10:21:34.373Z,960.2078
2023-04-09T10:22:37.525Z,960.1950
2023-04-09T10:23:40.695Z,960.1633
2023-04-09T10:24:43.821Z,960.1384
2023-04-09T10:25:46.991Z,960.1150
2023-04-09T10:26:50.277Z,960.0573
2023-04-09T10:27:53.456Z,960.0478
2023-04-09T10:28:56.573Z,960.0800
2023-04-09T10:29:59.710Z,960.0505
2023-04-09T10:31:02.990Z,960.0656
2023-04-09T10:32:06.205Z,960.0756
2023-04-09T10:33:09.354Z,960.0728
2023-04-09T10:34:12.473Z,960.0578
2023-04-09T10:35:15.634Z,960.0355
2023-04-09T10:36:18.796Z,960.0072
2023-04-09T10:37:21.917Z,959.9972
2023-04-09T10:38:25.036Z,960.0206
2023-04-09T10:39:28.199Z,960.0195
2023-04-09T10:40:31.312Z,960.0089
2023-04-09T10:41:34.451Z,960.0056
2023-04-09T10:42:37.578Z,959.9866
2023-04-09T10:43:40.745Z,959.9839
2023-04-09T10:44:43.894Z,959.9905
2023-04-09T10:45:47.031Z,960.0000
2023-04-09T10:46:50.281Z,959.9933
2023-04-09T10:47:53.492Z,960.0178
2023-04-09T10:48:56.614Z,960.0067
2023-04-09T10:49:59.756Z,959.9545
2023-04-09T10:51:03.056Z,959.9206
2023-04-09T10:52:06.173Z,959.9239
2023-04-09T10:53:09.302Z,959.9344
2023-04-09T10:54:12.545Z,959.9028
2023-04-09T10:55:15.647Z,959.9011
2023-04-09T10:56:18.787Z,959.8867
2023-04-09T10:57:21.918Z,959.8716
2023-04-09T10:58:25.116Z,959.8739
2023-04-09T10:59:28.278Z,959.8700
2023-04-09T11:00:31.394Z,959.8600
2023-04-09T11:01:34.654Z,959.8506
2023-04-09T11:02:37.927Z,959.8234
2023-04-09T11:03:41.130Z,959.8300
2023-04-09T11:04:44.351Z,959.8295
2023-04-09T11:05:47.524Z,959.8028
2023-04-09T11:06:50.712Z,959.7994
2023-04-09T11:07:53.839Z,959.7917
2023-04-09T11:08:56.970Z,959.7883
2023-04-09T11:10:00.141Z,959.7628
2023-04-09T11:11:00.160Z,959.7888
2023-04-09T11:12:03.235Z,959.8089
2023-04-09T11:13:06.377Z,959.8134
2023-04-09T11:14:07.639Z,959.7971
2023-04-09T11:15:10.824Z,959.8111
2023-04-09T11:16:24.350Z,959.7905
2023-04-09T11:17:16.290Z,959.7731
2023-04-09T11:18:19.418Z,959.7811
2023-04-09T11:19:22.579Z,959.7533
2023-04-09T11:20:25.725Z,959.7739
2023-04-09T11:21:29.167Z,959.7255
2023-04-09T11:22:32.364Z,959.7206
2023-04-09T11:23:35.710Z,959.7461
2023-04-09T11:24:38.788Z,959.7311
2023-04-09T11:25:41.990Z,959.7244
2023-04-09T11:26:45.113Z,959.7250
2023-04-09T11:27:48.276Z,959.7117
2023-04-09T11:28:51.630Z,959.7022
2023-04-09T11:29:54.874Z,959.7061
2023-04-09T11:30:58.007Z,959.7311
2023-04-09T11:32:01.307Z,959.7272
2023-04-09T11:33:04.550Z,959.7650
2023-04-09T11:34:07.741Z,959.7789
2023-04-09T11:35:10.866Z,959.7767
2023-04-09T11:36:13.998Z,959.7745
2023-04-09T11:37:17.125Z,959.7484
2023-04-09T11:38:20.480Z,959.7050
2023-04-09T11:39:23.626Z,959.7156
2023-04-09T11:40:26.762Z,959.7466
2023-04-09T11:41:29.912Z,959.7178
2023-04-09T11:42:33.028Z,959.6828
2023-04-09T11:43:36.187Z,959.6967
2023-04-09T11:44:39.392Z,959.7022
2023-04-09T11:45:42.544Z,959.7072
2023-04-09T11:46:45.804Z,959.7089
2023-04-09T11:47:48.963Z,959.6783
2023-04-09T11:48:52.319Z,959.6495
2023-04-09T11:49:55.536Z,959.6495
2023-04-09T11:50:58.872Z,959.6644
2023-04-09T11:52:02.024Z,959.6995
2023-04-09T11:53:05.245Z,959.7283
2023-04-09T11:54:08.408Z,959.7372
2023-04-09T11:55:11.597Z,959.6972
2023-04-09T11:56:14.747Z,959.7117
2023-04-09T11:57:17.942Z,959.6967
2023-04-09T11:58:21.179Z,959.6583
2023-04-09T11:59:24.367Z,959.6445
2023-04-09T12:00:27.521Z,959.6200
2023-04-09T12:01:30.705Z,959.6350
2023-04-09T12:02:34.017Z,959.6644
2023-04-09T12:03:37.436Z,959.6633
2023-04-09T12:04:37.401Z,959.6577
2023-04-09T12:05:42.832Z,959.6517
2023-04-09T12:06:43.910Z,959.6588
2023-04-09T12:07:55.570Z,959.6589
2023-04-09T12:08:49.243Z,959.6550
2023-04-09T12:09:52.453Z,959.6700
2023-04-09T12:10:55.816Z,959.6400
2023-04-09T12:11:58.991Z,959.5911
2023-04-09T12:13:02.160Z,959.6033
2023-04-09T12:14:05.355Z,959.6039
2023-04-09T12:15:08.528Z,959.5783
2023-04-09T12:16:11.801Z,959.5622
2023-04-09T12:17:14.991Z,959.5594
2023-04-09T12:18:18.154Z,959.5583
2023-04-09T12:19:21.363Z,959.5489
2023-04-09T12:20:24.520Z,959.5311